sensor_id;sensor_type;location;lat;lon;timestamp;pressure;altitude;pressure_sealevel;temperature;humidity
5952;BME280;3001;42.622;23.194;2023-01-28T08:15:31;90858.72;;;2.21;87.50
5952;BME280;3001;42.622;23.194;2023-01-28T08:17:59;90854.09;;;2.13;88.40
5952;BME280;3001;42.622;23.194;2023-01-28T08:20:27;90855.88;;;2.22;89.34
5952;BME280;3001;42.622;23.194;2023-01-28T08:23:04;90857.19;;;2.15;90.08
5952;BME280;3001;42.622;23.194;2023-01-28T08:25:30;90859.19;;;2.28;89.10
5952;BME280;3001;42.622;23.194;2023-01-28T08:27:58;90858.63;;;2.46;89.31
5952;BME280;3001;42.622;23.194;2023-01-28T08:30:25;90855.50;;;2.59;88.65
5952;BME280;3001;42.622;23.194;2023-01-28T08:32:55;90859.31;;;2.66;87.64
5952;BME280;3001;42.622;23.194;2023-01-28T08:35:23;90867.47;;;2.73;87.53
5952;BME280;3001;42.622;23.194;2023-01-28T08:37:49;90866.75;;;2.63;86.64
5952;BME280;3001;42.622;23.194;2023-01-28T08:40:16;90864.25;;;2.48;87.07
5952;BME280;3001;42.622;23.194;2023-01-28T08:42:46;90867.81;;;2.52;87.70
5952;BME280;3001;42.622;23.194;2023-01-28T08:45:13;90867.50;;;2.63;86.84
5952;BME280;3001;42.622;23.194;2023-01-28T08:47:46;90864.84;;;2.83;86.21
5952;BME280;3001;42.622;23.194;2023-01-28T08:50:15;90874.28;;;2.93;85.77
5952;BME280;3001;42.622;23.194;2023-01-28T08:52:42;90873.59;;;2.77;87.48
5952;BME280;3001;42.622;23.194;2023-01-28T08:55:09;90874.56;;;2.91;86.45
5952;BME280;3001;42.622;23.194;2023-01-28T08:57:35;90868.75;;;2.76;87.12
5952;BME280;3001;42.622;23.194;2023-01-28T09:00:03;90873.03;;;2.85;86.85
5952;BME280;3001;42.622;23.194;2023-01-28T09:02:31;90873.69;;;3.11;86.19
5952;BME280;3001;42.622;23.194;2023-01-28T09:04:58;90867.84;;;3.00;86.83
5952;BME280;3001;42.622;23.194;2023-01-28T09:07:26;90870.78;;;3.22;85.04
5952;BME280;3001;42.622;23.194;2023-01-28T09:09:52;90871.38;;;3.14;85.30
5952;BME280;3001;42.622;23.194;2023-01-28T09:12:19;90869.97;;;3.32;84.71
5952;BME280;3001;42.622;23.194;2023-01-28T09:14:46;90877.81;;;3.45;82.93
5952;BME280;3001;42.622;23.194;2023-01-28T09:17:12;90877.94;;;3.25;83.56
5952;BME280;3001;42.622;23.194;2023-01-28T09:19:39;90878.97;;;3.29;83.85
5952;BME280;3001;42.622;23.194;2023-01-28T09:22:05;90876.91;;;3.31;82.99
5952;BME280;3001;42.622;23.194;2023-01-28T09:24:33;90881.66;;;3.47;83.63
5952;BME280;3001;42.622;23.194;2023-01-28T09:27:00;90881.03;;;3.27;83.65
5952;BME280;3001;42.622;23.194;2023-01-28T09:29:27;90876.88;;;3.36;84.24
5952;BME280;3001;42.622;23.194;2023-01-28T09:31:53;90884.31;;;3.33;84.73
5952;BME280;3001;42.622;23.194;2023-01-28T09:34:20;90878.78;;;3.16;85.82
5952;BME280;3001;42.622;23.194;2023-01-28T09:36:47;90876.16;;;3.26;85.92
5952;BME280;3001;42.622;23.194;2023-01-28T09:39:13;90873.53;;;3.35;84.95
5952;BME280;3001;42.622;23.194;2023-01-28T09:41:57;90885.25;;;3.46;84.81
5952;BME280;3001;42.622;23.194;2023-01-28T09:44:36;90873.47;;;3.45;83.88
5952;BME280;3001;42.622;23.194;2023-01-28T09:47:11;90878.97;;;3.29;83.90
5952;BME280;3001;42.622;23.194;2023-01-28T09:49:45;90880.19;;;3.36;84.77
5952;BME280;3001;42.622;23.194;2023-01-28T09:52:15;90878.94;;;3.34;84.61
5952;BME280;3001;42.622;23.194;2023-01-28T09:54:45;90884.94;;;3.20;84.81
5952;BME280;3001;42.622;23.194;2023-01-28T09:57:19;90875.44;;;3.20;85.04
5952;BME280;3001;42.622;23.194;2023-01-28T09:59:47;90873.19;;;3.47;83.18
5952;BME280;3001;42.622;23.194;2023-01-28T10:02:26;90875.88;;;3.32;83.63
5952;BME280;3001;42.622;23.194;2023-01-28T10:05:01;90874.53;;;3.39;83.68
5952;BME280;3001;42.622;23.194;2023-01-28T10:07:35;90873.00;;;3.38;84.73
5952;BME280;3001;42.622;23.194;2023-01-28T10:10:11;90875.69;;;3.57;84.16
5952;BME280;3001;42.622;23.194;2023-01-28T10:12:48;90866.59;;;3.69;83.64
5952;BME280;3001;42.622;23.194;2023-01-28T10:15:38;90867.56;;;3.78;82.77
5952;BME280;3001;42.622;23.194;2023-01-28T10:18:08;90872.84;;;3.87;81.94
5952;BME280;3001;42.622;23.194;2023-01-28T10:20:37;90870.16;;;3.73;83.10
5952;BME280;3001;42.622;23.194;2023-01-28T10:23:13;90870.75;;;3.65;83.29
5952;BME280;3001;42.622;23.194;2023-01-28T10:25:43;90877.09;;;3.73;81.44
5952;BME280;3001;42.622;23.194;2023-01-28T10:28:18;90875.09;;;3.65;81.48
5952;BME280;3001;42.622;23.194;2023-01-28T10:30:47;90875.94;;;3.60;83.78
5952;BME280;3001;42.622;23.194;2023-01-28T10:33:18;90872.31;;;3.61;84.18
5952;BME280;3001;42.622;23.194;2023-01-28T10:35:46;90873.84;;;3.62;83.96
5952;BME280;3001;42.622;23.194;2023-01-28T10:38:14;90879.47;;;3.64;82.54
5952;BME280;3001;42.622;23.194;2023-01-28T10:40:43;90879.59;;;3.49;82.62
5952;BME280;3001;42.622;23.194;2023-01-28T10:43:14;90869.81;;;3.51;83.86
5952;BME280;3001;42.622;23.194;2023-01-28T10:45:54;90872.63;;;3.55;83.00
5952;BME280;3001;42.622;23.194;2023-01-28T10:48:25;90872.34;;;3.56;84.44
5952;BME280;3001;42.622;23.194;2023-01-28T10:50:56;90871.06;;;3.59;84.55
5952;BME280;3001;42.622;23.194;2023-01-28T10:53:37;90872.53;;;3.65;85.29
5952;BME280;3001;42.622;23.194;2023-01-28T10:56:06;90863.53;;;3.67;84.82
5952;BME280;3001;42.622;23.194;2023-01-28T10:58:47;90870.16;;;3.73;85.09
5952;BME280;3001;42.622;23.194;2023-01-28T11:01:16;90869.66;;;3.71;84.19
5952;BME280;3001;42.622;23.194;2023-01-28T11:03:53;90868.56;;;3.77;83.75
5952;BME280;3001;42.622;23.194;2023-01-28T11:06:28;90866.28;;;3.76;83.55
5952;BME280;3001;42.622;23.194;2023-01-28T11:08:55;90873.16;;;3.85;83.82
5952;BME280;3001;42.622;23.194;2023-01-28T11:11:24;90865.50;;;3.80;83.31
5952;BME280;3001;42.622;23.194;2023-01-28T11:13:53;90869.34;;;3.78;83.54
5952;BME280;3001;42.622;23.194;2023-01-28T11:16:23;90866.91;;;3.91;83.68
5952;BME280;3001;42.622;23.194;2023-01-28T11:18:52;90867.16;;;3.95;83.48
5952;BME280;3001;42.622;23.194;2023-01-28T11:21:21;90863.56;;;3.96;83.91
5952;BME280;3001;42.622;23.194;2023-01-28T11:23:51;90868.38;;;4.02;83.63
5952;BME280;3001;42.622;23.194;2023-01-28T11:26:21;90874.25;;;4.03;80.78
5952;BME280;3001;42.622;23.194;2023-01-28T11:28:49;90860.38;;;4.04;80.82
5952;BME280;3001;42.622;23.194;2023-01-28T11:31:19;90860.00;;;4.15;80.62
5952;BME280;3001;42.622;23.194;2023-01-28T11:33:49;90869.13;;;4.03;82.21
5952;BME280;3001;42.622;23.194;2023-01-28T11:36:19;90865.31;;;4.00;83.00
5952;BME280;3001;42.622;23.194;2023-01-28T11:38:48;90859.25;;;4.15;82.12
5952;BME280;3001;42.622;23.194;2023-01-28T11:41:15;90871.13;;;4.11;81.57
5952;BME280;3001;42.622;23.194;2023-01-28T11:43:42;90864.91;;;4.40;80.87
5952;BME280;3001;42.622;23.194;2023-01-28T11:46:29;90865.13;;;4.20;80.44
5952;BME280;3001;42.622;23.194;2023-01-28T11:49:06;90857.44;;;3.87;82.64
5952;BME280;3001;42.622;23.194;2023-01-28T11:51:41;90862.47;;;4.02;82.17
5952;BME280;3001;42.622;23.194;2023-01-28T11:54:19;90862.09;;;4.13;81.21
5952;BME280;3001;42.622;23.194;2023-01-28T11:57:08;90862.41;;;4.07;80.53
5952;BME280;3001;42.622;23.194;2023-01-28T11:59:53;90857.31;;;4.02;81.64
5952;BME280;3001;42.622;23.194;2023-01-28T12:02:41;90857.69;;;4.42;80.59
5952;BME280;3001;42.622;23.194;2023-01-28T12:05:18;90863.38;;;4.39;80.77
5952;BME280;3001;42.622;23.194;2023-01-28T12:07:53;90873.94;;;4.38;80.80
5952;BME280;3001;42.622;23.194;2023-01-28T12:10:28;90866.28;;;4.33;81.14
5952;BME280;3001;42.622;23.194;2023-01-28T12:13:08;90856.69;;;4.38;80.81
5952;BME280;3001;42.622;23.194;2023-01-28T12:15:54;90860.84;;;4.34;79.69
5952;BME280;3001;42.622;23.194;2023-01-28T12:18:55;90860.34;;;4.32;80.99
5952;BME280;3001;42.622;23.194;2023-01-28T12:21:29;90866.44;;;4.41;80.59
5952;BME280;3001;42.622;23.194;2023-01-28T12:24:12;90863.50;;;4.53;80.67
5952;BME280;3001;42.622;23.194;2023-01-28T12:26:48;90863.25;;;4.49;80.83
5952;BME280;3001;42.622;23.194;2023-01-28T12:29:26;90870.53;;;4.42;80.38
5952;BME280;3001;42.622;23.194;2023-01-28T12:32:23;90869.69;;;4.52;78.61
5952;BME280;3001;42.622;23.194;2023-01-28T12:35:30;90856.09;;;4.46;78.72
5952;BME280;3001;42.622;23.194;2023-01-28T12:38:05;90869.03;;;4.36;78.92
5952;BME280;3001;42.622;23.194;2023-01-28T12:40:56;90872.50;;;4.50;77.89
5952;BME280;3001;42.622;23.194;2023-01-28T12:43:37;90881.84;;;4.65;78.25
5952;BME280;3001;42.622;23.194;2023-01-28T12:46:11;90876.44;;;4.66;78.56
5952;BME280;3001;42.622;23.194;2023-01-28T12:48:43;90890.56;;;4.45;77.94
5952;BME280;3001;42.622;23.194;2023-01-28T12:51:15;90888.81;;;4.41;78.64
5952;BME280;3001;42.622;23.194;2023-01-28T12:53:48;90890.34;;;4.42;79.83
5952;BME280;3001;42.622;23.194;2023-01-28T12:56:17;90890.81;;;4.44;80.04
5952;BME280;3001;42.622;23.194;2023-01-28T12:58:48;90892.84;;;4.47;79.96
5952;BME280;3001;42.622;23.194;2023-01-28T13:01:20;90891.97;;;4.56;80.02
5952;BME280;3001;42.622;23.194;2023-01-28T13:03:52;90897.56;;;4.63;79.08
5952;BME280;3001;42.622;23.194;2023-01-28T13:06:26;90890.13;;;4.62;79.49
5952;BME280;3001;42.622;23.194;2023-01-28T13:08:57;90900.84;;;4.69;79.51
5952;BME280;3001;42.622;23.194;2023-01-28T13:11:33;90903.97;;;4.66;79.60
5952;BME280;3001;42.622;23.194;2023-01-28T13:14:00;90898.78;;;4.71;78.52
5952;BME280;3001;42.622;23.194;2023-01-28T13:16:28;90900.97;;;4.82;78.17
5952;BME280;3001;42.622;23.194;2023-01-28T13:19:05;90911.78;;;4.79;78.20
5952;BME280;3001;42.622;23.194;2023-01-28T13:21:35;90908.53;;;4.74;78.74
5952;BME280;3001;42.622;23.194;2023-01-28T13:24:17;90904.25;;;4.64;79.07
5952;BME280;3001;42.622;23.194;2023-01-28T13:26:46;90917.13;;;4.64;78.69
5952;BME280;3001;42.622;23.194;2023-01-28T13:29:20;90908.22;;;4.75;78.40
5952;BME280;3001;42.622;23.194;2023-01-28T13:31:49;90913.28;;;4.85;78.76
5952;BME280;3001;42.622;23.194;2023-01-28T13:34:32;90926.06;;;4.90;78.55
5952;BME280;3001;42.622;23.194;2023-01-28T13:37:03;90926.78;;;4.96;78.18
5952;BME280;3001;42.622;23.194;2023-01-28T13:39:33;90923.75;;;5.12;78.06
5952;BME280;3001;42.622;23.194;2023-01-28T13:42:22;90928.88;;;4.94;78.53
5952;BME280;3001;42.622;23.194;2023-01-28T13:44:50;90924.97;;;4.96;77.47
5952;BME280;3001;42.622;23.194;2023-01-28T13:47:26;90927.13;;;4.89;76.26
5952;BME280;3001;42.622;23.194;2023-01-28T13:49:57;90931.34;;;4.80;76.37
5952;BME280;3001;42.622;23.194;2023-01-28T13:52:28;90932.22;;;4.71;76.69
5952;BME280;3001;42.622;23.194;2023-01-28T13:55:00;90928.63;;;4.67;75.81
5952;BME280;3001;42.622;23.194;2023-01-28T13:58:01;90938.81;;;4.53;77.87
5952;BME280;3001;42.622;23.194;2023-01-28T14:00:49;90939.78;;;4.62;77.67
5952;BME280;3001;42.622;23.194;2023-01-28T14:03:40;90935.59;;;4.66;78.40
5952;BME280;3001;42.622;23.194;2023-01-28T14:09:32;90945.88;;;4.43;78.00
5952;BME280;3001;42.622;23.194;2023-01-28T14:15:42;90946.03;;;4.23;79.09
5952;BME280;3001;42.622;23.194;2023-01-28T14:18:20;90949.09;;;4.25;79.24
5952;BME280;3001;42.622;23.194;2023-01-28T14:20:50;90950.03;;;4.39;79.21
5952;BME280;3001;42.622;23.194;2023-01-28T14:23:19;90951.56;;;4.40;79.31
5952;BME280;3001;42.622;23.194;2023-01-28T14:26:07;90960.13;;;4.59;78.93
5952;BME280;3001;42.622;23.194;2023-01-28T14:28:46;90970.84;;;4.66;79.14
5952;BME280;3001;42.622;23.194;2023-01-28T14:31:17;90969.69;;;4.53;79.13
5952;BME280;3001;42.622;23.194;2023-01-28T14:33:47;90968.38;;;4.56;79.44
5952;BME280;3001;42.622;23.194;2023-01-28T14:36:14;90962.69;;;4.59;79.72
5952;BME280;3001;42.622;23.194;2023-01-28T14:38:42;90963.19;;;4.61;79.38
5952;BME280;3001;42.622;23.194;2023-01-28T14:41:20;90965.31;;;4.77;79.31
5952;BME280;3001;42.622;23.194;2023-01-28T14:43:47;90968.91;;;4.81;79.21
5952;BME280;3001;42.622;23.194;2023-01-28T14:46:25;90970.81;;;4.71;79.65
5952;BME280;3001;42.622;23.194;2023-01-28T14:49:06;90973.41;;;4.66;79.53
5952;BME280;3001;42.622;23.194;2023-01-28T14:51:45;90977.31;;;4.63;80.37
5952;BME280;3001;42.622;23.194;2023-01-28T14:54:25;90985.06;;;4.58;80.34
5952;BME280;3001;42.622;23.194;2023-01-28T14:57:09;90982.47;;;4.63;80.53
5952;BME280;3001;42.622;23.194;2023-01-28T14:59:44;90986.09;;;4.57;80.31
5952;BME280;3001;42.622;23.194;2023-01-28T15:02:17;90987.00;;;4.71;80.05
5952;BME280;3001;42.622;23.194;2023-01-28T15:04:45;90990.53;;;4.80;79.45
5952;BME280;3001;42.622;23.194;2023-01-28T15:07:17;90998.06;;;4.72;80.14
5952;BME280;3001;42.622;23.194;2023-01-28T15:09:44;90996.41;;;4.81;79.80
5952;BME280;3001;42.622;23.194;2023-01-28T15:12:13;90993.19;;;4.70;80.13
5952;BME280;3001;42.622;23.194;2023-01-28T15:14:42;90994.34;;;4.54;80.69
5952;BME280;3001;42.622;23.194;2023-01-28T15:17:19;91003.28;;;4.62;80.25
5952;BME280;3001;42.622;23.194;2023-01-28T15:19:49;91003.84;;;4.59;80.17
5952;BME280;3001;42.622;23.194;2023-01-28T15:22:19;91005.19;;;4.51;80.17
5952;BME280;3001;42.622;23.194;2023-01-28T15:24:48;91008.38;;;4.67;79.92
5952;BME280;3001;42.622;23.194;2023-01-28T15:27:19;91012.03;;;4.61;79.36
5952;BME280;3001;42.622;23.194;2023-01-28T15:29:53;91007.16;;;4.59;79.05
5952;BME280;3001;42.622;23.194;2023-01-28T15:32:23;91020.03;;;4.59;78.52
5952;BME280;3001;42.622;23.194;2023-01-28T15:34:50;91016.75;;;4.54;77.50
5952;BME280;3001;42.622;23.194;2023-01-28T15:37:17;91018.91;;;4.42;77.33
5952;BME280;3001;42.622;23.194;2023-01-28T15:39:44;91021.97;;;4.44;77.25
5952;BME280;3001;42.622;23.194;2023-01-28T15:42:19;91025.03;;;4.46;77.36
5952;BME280;3001;42.622;23.194;2023-01-28T15:44:47;91025.38;;;4.39;77.57
5952;BME280;3001;42.622;23.194;2023-01-28T15:47:17;91033.34;;;4.38;77.94
5952;BME280;3001;42.622;23.194;2023-01-28T15:49:49;91038.03;;;4.31;77.70
5952;BME280;3001;42.622;23.194;2023-01-28T15:52:17;91039.06;;;4.30;76.46
5952;BME280;3001;42.622;23.194;2023-01-28T15:54:47;91042.78;;;4.47;76.07
5952;BME280;3001;42.622;23.194;2023-01-28T15:57:19;91040.06;;;4.29;75.78
5952;BME280;3001;42.622;23.194;2023-01-28T15:59:46;91044.69;;;4.32;75.30
5952;BME280;3001;42.622;23.194;2023-01-28T16:02:20;91057.06;;;4.25;75.39
5952;BME280;3001;42.622;23.194;2023-01-28T16:04:57;91058.06;;;4.29;75.69
5952;BME280;3001;42.622;23.194;2023-01-28T16:07:25;91059.69;;;4.20;75.78
5952;BME280;3001;42.622;23.194;2023-01-28T16:09:54;91054.59;;;4.15;75.52
5952;BME280;3001;42.622;23.194;2023-01-28T16:12:23;91059.97;;;4.13;76.05
5952;BME280;3001;42.622;23.194;2023-01-28T16:14:53;91065.44;;;4.02;76.70
5952;BME280;3001;42.622;23.194;2023-01-28T16:17:23;91065.50;;;3.97;77.50
5952;BME280;3001;42.622;23.194;2023-01-28T16:19:55;91062.38;;;4.00;76.74
5952;BME280;3001;42.622;23.194;2023-01-28T16:22:31;91065.50;;;3.97;77.48
5952;BME280;3001;42.622;23.194;2023-01-28T16:24:58;91072.16;;;3.98;76.82
5952;BME280;3001;42.622;23.194;2023-01-28T16:27:28;91066.28;;;3.92;76.91
5952;BME280;3001;42.622;23.194;2023-01-28T16:29:55;91072.16;;;3.98;77.47
5952;BME280;3001;42.622;23.194;2023-01-28T16:32:32;91069.09;;;3.96;77.90
5952;BME280;3001;42.622;23.194;2023-01-28T16:35:00;91072.66;;;4.00;77.98
5952;BME280;3001;42.622;23.194;2023-01-28T16:37:27;91072.16;;;3.98;77.60
5952;BME280;3001;42.622;23.194;2023-01-28T16:39:54;91072.94;;;3.98;76.58
5952;BME280;3001;42.622;23.194;2023-01-28T16:42:21;91072.41;;;4.01;77.16
5952;BME280;3001;42.622;23.194;2023-01-28T16:44:49;91079.06;;;4.02;77.46
5952;BME280;3001;42.622;23.194;2023-01-28T16:47:15;91076.78;;;3.96;77.23
5952;BME280;3001;42.622;23.194;2023-01-28T16:49:42;91086.25;;;4.05;76.72
5952;BME280;3001;42.622;23.194;2023-01-28T16:52:10;91083.38;;;4.12;76.55
5952;BME280;3001;42.622;23.194;2023-01-28T16:54:38;91072.09;;;4.08;76.64
5952;BME280;3001;42.622;23.194;2023-01-28T16:57:05;91080.69;;;3.88;76.97
5952;BME280;3001;42.622;23.194;2023-01-28T16:59:32;91081.16;;;3.95;76.78
5952;BME280;3001;42.622;23.194;2023-01-28T17:02:00;91089.81;;;3.61;78.24
5952;BME280;3001;42.622;23.194;2023-01-28T17:04:27;91090.50;;;3.76;78.00
5952;BME280;3001;42.622;23.194;2023-01-28T17:06:54;91099.78;;;3.67;78.29
5952;BME280;3001;42.622;23.194;2023-01-28T17:09:21;91092.38;;;3.61;78.64
5952;BME280;3001;42.622;23.194;2023-01-28T17:11:48;91093.63;;;3.68;78.73
5952;BME280;3001;42.622;23.194;2023-01-28T17:14:15;91094.34;;;3.79;78.48
5952;BME280;3001;42.622;23.194;2023-01-28T17:16:41;91095.19;;;3.64;79.23
5952;BME280;3001;42.622;23.194;2023-01-28T17:19:09;91097.50;;;3.61;80.17
5952;BME280;3001;42.622;23.194;2023-01-28T17:21:36;91103.47;;;3.46;80.21
5952;BME280;3001;42.622;23.194;2023-01-28T17:24:03;91092.16;;;3.47;80.29
5952;BME280;3001;42.622;23.194;2023-01-28T17:26:30;91095.78;;;3.46;81.00
5952;BME280;3001;42.622;23.194;2023-01-28T17:28:59;91102.66;;;3.56;80.92
5952;BME280;3001;42.622;23.194;2023-01-28T17:31:26;91107.31;;;3.54;81.17
5952;BME280;3001;42.622;23.194;2023-01-28T17:33:53;91100.66;;;3.48;81.42
5952;BME280;3001;42.622;23.194;2023-01-28T17:36:22;91102.41;;;3.57;81.36
5952;BME280;3001;42.622;23.194;2023-01-28T17:38:49;91103.88;;;3.78;80.87
5952;BME280;3001;42.622;23.194;2023-01-28T17:41:16;91108.81;;;3.60;80.82
5952;BME280;3001;42.622;23.194;2023-01-28T17:43:49;91097.56;;;3.51;82.16
5952;BME280;3001;42.622;23.194;2023-01-28T17:46:16;91108.34;;;3.53;82.12
5952;BME280;3001;42.622;23.194;2023-01-28T17:48:43;91110.34;;;3.61;81.95
5952;BME280;3001;42.622;23.194;2023-01-28T17:51:10;91118.03;;;3.66;82.47
5952;BME280;3001;42.622;23.194;2023-01-28T17:53:39;91115.69;;;3.79;82.13
5952;BME280;3001;42.622;23.194;2023-01-28T17:56:14;91122.13;;;3.67;80.17
5952;BME280;3001;42.622;23.194;2023-01-28T17:58:41;91120.59;;;3.71;78.04
5952;BME280;3001;42.622;23.194;2023-01-28T18:01:08;91126.75;;;3.70;77.60
5952;BME280;3001;42.622;23.194;2023-01-28T18:03:35;91120.38;;;3.52;78.59
5952;BME280;3001;42.622;23.194;2023-01-28T18:06:02;91121.69;;;3.55;79.94
5952;BME280;3001;42.622;23.194;2023-01-28T18:08:29;91131.44;;;3.53;80.51
5952;BME280;3001;42.622;23.194;2023-01-28T18:10:57;91130.41;;;3.54;78.05
5952;BME280;3001;42.622;23.194;2023-01-28T18:13:23;91129.16;;;3.46;77.39
5952;BME280;3001;42.622;23.194;2023-01-28T18:15:50;91142.28;;;3.35;78.58
5952;BME280;3001;42.622;23.194;2023-01-28T18:18:17;91142.00;;;3.32;79.02
5952;BME280;3001;42.622;23.194;2023-01-28T18:20:43;91140.00;;;3.24;79.55
5952;BME280;3001;42.622;23.194;2023-01-28T18:23:10;91145.31;;;3.42;79.15
5952;BME280;3001;42.622;23.194;2023-01-28T18:25:37;91149.22;;;3.30;79.29
5952;BME280;3001;42.622;23.194;2023-01-28T18:28:05;91143.81;;;3.31;78.02
5952;BME280;3001;42.622;23.194;2023-01-28T18:30:32;91147.94;;;3.32;78.24
5952;BME280;3001;42.622;23.194;2023-01-28T18:32:59;91150.50;;;3.32;79.60
5952;BME280;3001;42.622;23.194;2023-01-28T18:35:26;91156.13;;;3.39;79.10
5952;BME280;3001;42.622;23.194;2023-01-28T18:37:52;91159.44;;;3.44;79.16
5952;BME280;3001;42.622;23.194;2023-01-28T18:40:19;91156.88;;;3.44;78.33
5952;BME280;3001;42.622;23.194;2023-01-28T18:42:46;91164.84;;;3.48;77.31
5952;BME280;3001;42.622;23.194;2023-01-28T18:45:14;91161.50;;;3.47;78.06
5952;BME280;3001;42.622;23.194;2023-01-28T18:47:41;91161.50;;;3.47;77.68
5952;BME280;3001;42.622;23.194;2023-01-28T18:50:08;91164.31;;;3.41;77.21
5952;BME280;3001;42.622;23.194;2023-01-28T18:52:35;91169.47;;;3.36;77.92
5952;BME280;3001;42.622;23.194;2023-01-28T18:55:02;91161.78;;;3.31;78.28
5952;BME280;3001;42.622;23.194;2023-01-28T18:57:28;91166.13;;;3.35;78.86
5952;BME280;3001;42.622;23.194;2023-01-28T18:59:55;91171.78;;;3.42;79.59
5952;BME280;3001;42.622;23.194;2023-01-28T19:02:23;91171.25;;;3.50;78.60
5952;BME280;3001;42.622;23.194;2023-01-28T19:04:50;91172.31;;;3.39;77.50
5952;BME280;3001;42.622;23.194;2023-01-28T19:07:16;91161.75;;;3.46;77.13
5952;BME280;3001;42.622;23.194;2023-01-28T19:09:43;91169.19;;;3.57;77.43
5952;BME280;3001;42.622;23.194;2023-01-28T19:12:10;91170.25;;;3.41;78.92
5952;BME280;3001;42.622;23.194;2023-01-28T19:14:37;91168.69;;;3.35;78.60
5952;BME280;3001;42.622;23.194;2023-01-28T19:17:03;91171.06;;;3.27;77.92
5952;BME280;3001;42.622;23.194;2023-01-28T19:19:31;91167.72;;;3.12;77.75
5952;BME280;3001;42.622;23.194;2023-01-28T19:21:58;91169.53;;;3.01;78.40
5952;BME280;3001;42.622;23.194;2023-01-28T19:24:25;91176.72;;;2.99;79.20
5952;BME280;3001;42.622;23.194;2023-01-28T19:26:52;91173.38;;;2.84;80.25
5952;BME280;3001;42.622;23.194;2023-01-28T19:29:18;91179.53;;;2.73;80.92
5952;BME280;3001;42.622;23.194;2023-01-28T19:31:45;91180.31;;;2.73;82.25
5952;BME280;3001;42.622;23.194;2023-01-28T19:34:13;91180.56;;;2.72;82.13
5952;BME280;3001;42.622;23.194;2023-01-28T19:36:42;91181.84;;;2.79;81.23
5952;BME280;3001;42.622;23.194;2023-01-28T19:39:10;91187.50;;;2.86;81.96
5952;BME280;3001;42.622;23.194;2023-01-28T19:41:38;91176.72;;;2.69;80.12
5952;BME280;3001;42.622;23.194;2023-01-28T19:44:05;91187.50;;;2.96;78.91
5952;BME280;3001;42.622;23.194;2023-01-28T19:46:32;91191.34;;;2.99;78.47
5952;BME280;3001;42.622;23.194;2023-01-28T19:49:00;91193.13;;;2.73;80.84
5952;BME280;3001;42.622;23.194;2023-01-28T19:51:28;91199.78;;;2.69;81.20
5952;BME280;3001;42.622;23.194;2023-01-28T19:53:56;91186.94;;;2.39;80.52
5952;BME280;3001;42.622;23.194;2023-01-28T19:56:24;91181.19;;;2.02;82.45
5952;BME280;3001;42.622;23.194;2023-01-28T19:58:52;91195.88;;;2.32;82.96
5952;BME280;3001;42.622;23.194;2023-01-28T20:01:22;91195.59;;;2.13;84.37
5952;BME280;3001;42.622;23.194;2023-01-28T20:03:49;91195.09;;;2.21;83.84
5952;BME280;3001;42.622;23.194;2023-01-28T20:06:17;91197.41;;;2.33;83.53
5952;BME280;3001;42.622;23.194;2023-01-28T20:08:49;91196.66;;;2.37;83.54
5952;BME280;3001;42.622;23.194;2023-01-28T20:11:17;91203.88;;;2.55;83.78
5952;BME280;3001;42.622;23.194;2023-01-28T20:13:45;91201.31;;;2.65;82.91
5952;BME280;3001;42.622;23.194;2023-01-28T20:16:14;91210.06;;;2.69;82.07
5952;BME280;3001;42.622;23.194;2023-01-28T20:18:42;91203.84;;;2.35;82.12
5952;BME280;3001;42.622;23.194;2023-01-28T20:21:13;91204.88;;;2.44;80.82
5952;BME280;3001;42.622;23.194;2023-01-28T20:23:40;91200.28;;;2.51;80.63
5952;BME280;3001;42.622;23.194;2023-01-28T20:26:06;91202.03;;;2.31;82.05
5952;BME280;3001;42.622;23.194;2023-01-28T20:28:34;91210.53;;;2.46;82.24
5952;BME280;3001;42.622;23.194;2023-01-28T20:31:03;91208.22;;;2.50;82.13
5952;BME280;3001;42.622;23.194;2023-01-28T20:33:30;91209.50;;;2.47;80.88
5952;BME280;3001;42.622;23.194;2023-01-28T20:35:59;91213.06;;;2.41;81.06
5952;BME280;3001;42.622;23.194;2023-01-28T20:38:26;91212.03;;;2.42;82.24
5952;BME280;3001;42.622;23.194;2023-01-28T20:40:53;91220.00;;;2.41;83.00
5952;BME280;3001;42.622;23.194;2023-01-28T20:43:19;91219.75;;;2.47;82.13
5952;BME280;3001;42.622;23.194;2023-01-28T20:45:47;91218.97;;;2.47;82.46
5952;BME280;3001;42.622;23.194;2023-01-28T20:48:14;91220.28;;;2.49;82.28
5952;BME280;3001;42.622;23.194;2023-01-28T20:50:41;91223.59;;;2.55;83.17
5952;BME280;3001;42.622;23.194;2023-01-28T20:53:07;91220.28;;;2.54;83.31
5952;BME280;3001;42.622;23.194;2023-01-28T20:55:34;91230.28;;;2.61;82.83
5952;BME280;3001;42.622;23.194;2023-01-28T20:58:01;91228.25;;;2.73;82.75
5952;BME280;3001;42.622;23.194;2023-01-28T21:00:28;91228.50;;;2.81;82.22
5952;BME280;3001;42.622;23.194;2023-01-28T21:02:57;91226.16;;;2.55;83.24
5952;BME280;3001;42.622;23.194;2023-01-28T21:05:23;91229.03;;;2.83;82.49
5952;BME280;3001;42.622;23.194;2023-01-28T21:07:50;91232.63;;;2.97;82.15
5952;BME280;3001;42.622;23.194;2023-01-28T21:10:17;91235.97;;;2.98;81.46
5952;BME280;3001;42.622;23.194;2023-01-28T21:12:44;91237.25;;;2.95;81.38
5952;BME280;3001;42.622;23.194;2023-01-28T21:15:10;91239.28;;;3.03;80.40
5952;BME280;3001;42.622;23.194;2023-01-28T21:17:37;91242.38;;;2.95;81.30
5952;BME280;3001;42.622;23.194;2023-01-28T21:20:06;91238.81;;;2.86;81.97
5952;BME280;3001;42.622;23.194;2023-01-28T21:22:33;91239.28;;;3.03;81.00
5952;BME280;3001;42.622;23.194;2023-01-28T21:25:00;91241.88;;;2.98;81.17
5952;BME280;3001;42.622;23.194;2023-01-28T21:27:27;91240.06;;;2.84;81.76
5952;BME280;3001;42.622;23.194;2023-01-28T21:29:53;91236.72;;;2.83;82.34
5952;BME280;3001;42.622;23.194;2023-01-28T21:32:20;91234.16;;;2.78;82.00
5952;BME280;3001;42.622;23.194;2023-01-28T21:34:47;91239.56;;;2.82;83.20
5952;BME280;3001;42.622;23.194;2023-01-28T21:37:15;91236.22;;;2.81;83.02
5952;BME280;3001;42.622;23.194;2023-01-28T21:39:46;91243.69;;;3.03;82.60
5952;BME280;3001;42.622;23.194;2023-01-28T21:42:13;91243.16;;;3.11;82.17
5952;BME280;3001;42.622;23.194;2023-01-28T21:44:40;91238.28;;;2.99;82.65
5952;BME280;3001;42.622;23.194;2023-01-28T21:47:06;91243.41;;;2.89;83.42
5952;BME280;3001;42.622;23.194;2023-01-28T21:49:33;91246.75;;;3.25;81.38
5952;BME280;3001;42.622;23.194;2023-01-28T21:52:00;91251.88;;;3.25;81.29
5952;BME280;3001;42.622;23.194;2023-01-28T21:54:28;91252.66;;;3.10;82.28
5952;BME280;3001;42.622;23.194;2023-01-28T21:56:54;91252.41;;;3.17;82.50
5952;BME280;3001;42.622;23.194;2023-01-28T21:59:21;91262.13;;;3.30;82.25
5952;BME280;3001;42.622;23.194;2023-01-28T22:01:53;91256.22;;;3.24;81.85